sensor_id;sensor_type;location;lat;lon;timestamp;temperature;humidity
40756;DHT22;26461;45.630;9.418;2023-01-29T00:01:54;3.60;98.20
40756;DHT22;26461;45.630;9.418;2023-01-29T00:05:01;3.60;98.40
40756;DHT22;26461;45.630;9.418;2023-01-29T00:08:09;3.50;98.30
40756;DHT22;26461;45.630;9.418;2023-01-29T00:11:20;3.50;98.30
40756;DHT22;26461;45.630;9.418;2023-01-29T00:14:25;3.70;98.40
40756;DHT22;26461;45.630;9.418;2023-01-29T00:17:32;3.50;98.30
40756;DHT22;26461;45.630;9.418;2023-01-29T00:20:42;3.50;98.20
40756;DHT22;26461;45.630;9.418;2023-01-29T00:23:48;3.60;98.20
40756;DHT22;26461;45.630;9.418;2023-01-29T00:26:58;3.60;98.20
40756;DHT22;26461;45.630;9.418;2023-01-29T00:30:04;3.60;98.30
40756;DHT22;26461;45.630;9.418;2023-01-29T00:33:18;3.60;98.20
40756;DHT22;26461;45.630;9.418;2023-01-29T00:36:24;3.80;98.20
40756;DHT22;26461;45.630;9.418;2023-01-29T00:39:35;3.60;98.50
40756;DHT22;26461;45.630;9.418;2023-01-29T00:42:44;3.60;98.10
40756;DHT22;26461;45.630;9.418;2023-01-29T00:46:12;3.60;98.10
40756;DHT22;26461;45.630;9.418;2023-01-29T00:49:19;3.70;98.20
40756;DHT22;26461;45.630;9.418;2023-01-29T00:52:26;3.60;98.20
40756;DHT22;26461;45.630;9.418;2023-01-29T00:55:30;3.60;98.10
40756;DHT22;26461;45.630;9.418;2023-01-29T00:58:35;3.60;98.10
40756;DHT22;26461;45.630;9.418;2023-01-29T01:01:41;3.60;98.10
40756;DHT22;26461;45.630;9.418;2023-01-29T01:05:06;3.60;98.10
40756;DHT22;26461;45.630;9.418;2023-01-29T01:08:17;3.50;98.00
40756;DHT22;26461;45.630;9.418;2023-01-29T01:11:48;3.60;98.10
40756;DHT22;26461;45.630;9.418;2023-01-29T01:14:53;3.50;98.10
40756;DHT22;26461;45.630;9.418;2023-01-29T01:17:59;3.50;98.10
40756;DHT22;26461;45.630;9.418;2023-01-29T01:21:06;3.50;98.30
40756;DHT22;26461;45.630;9.418;2023-01-29T01:24:16;3.50;98.40
40756;DHT22;26461;45.630;9.418;2023-01-29T01:27:21;3.50;98.30
40756;DHT22;26461;45.630;9.418;2023-01-29T01:30:28;3.50;98.20
40756;DHT22;26461;45.630;9.418;2023-01-29T01:33:33;3.50;98.10
40756;DHT22;26461;45.630;9.418;2023-01-29T01:36:38;3.50;98.10
40756;DHT22;26461;45.630;9.418;2023-01-29T01:39:49;3.40;98.10
40756;DHT22;26461;45.630;9.418;2023-01-29T01:43:00;3.50;98.20
40756;DHT22;26461;45.630;9.418;2023-01-29T01:46:05;3.30;98.20
40756;DHT22;26461;45.630;9.418;2023-01-29T01:49:15;3.40;98.30
40756;DHT22;26461;45.630;9.418;2023-01-29T01:52:22;3.40;98.40
40756;DHT22;26461;45.630;9.418;2023-01-29T01:55:28;3.40;98.40
40756;DHT22;26461;45.630;9.418;2023-01-29T01:58:42;3.40;98.50
40756;DHT22;26461;45.630;9.418;2023-01-29T02:01:52;3.40;98.40
40756;DHT22;26461;45.630;9.418;2023-01-29T02:04:57;3.40;98.40
40756;DHT22;26461;45.630;9.418;2023-01-29T02:08:31;3.40;98.40
40756;DHT22;26461;45.630;9.418;2023-01-29T02:12:10;3.50;98.50
40756;DHT22;26461;45.630;9.418;2023-01-29T02:15:16;4.30;98.80
40756;DHT22;26461;45.630;9.418;2023-01-29T02:18:21;3.40;98.60
40756;DHT22;26461;45.630;9.418;2023-01-29T02:31:45;3.40;98.80
40756;DHT22;26461;45.630;9.418;2023-01-29T02:35:19;3.40;99.00
40756;DHT22;26461;45.630;9.418;2023-01-29T02:38:40;3.40;99.10
40756;DHT22;26461;45.630;9.418;2023-01-29T02:42:00;3.40;99.20
40756;DHT22;26461;45.630;9.418;2023-01-29T02:45:15;3.40;99.30
40756;DHT22;26461;45.630;9.418;2023-01-29T02:48:24;3.40;99.50
40756;DHT22;26461;45.630;9.418;2023-01-29T02:52:11;3.40;99.40
40756;DHT22;26461;45.630;9.418;2023-01-29T02:55:17;3.40;99.50
40756;DHT22;26461;45.630;9.418;2023-01-29T02:58:33;3.40;99.60
40756;DHT22;26461;45.630;9.418;2023-01-29T03:02:10;3.40;99.90
40756;DHT22;26461;45.630;9.418;2023-01-29T03:05:32;3.40;99.80
40756;DHT22;26461;45.630;9.418;2023-01-29T03:08:42;3.40;99.90
40756;DHT22;26461;45.630;9.418;2023-01-29T03:11:53;3.40;99.90
40756;DHT22;26461;45.630;9.418;2023-01-29T03:15:17;3.40;99.90
40756;DHT22;26461;45.630;9.418;2023-01-29T03:19:05;3.40;99.90
40756;DHT22;26461;45.630;9.418;2023-01-29T03:22:12;3.40;99.90
40756;DHT22;26461;45.630;9.418;2023-01-29T03:25:23;3.50;99.90
40756;DHT22;26461;45.630;9.418;2023-01-29T03:28:49;3.70;99.90
40756;DHT22;26461;45.630;9.418;2023-01-29T03:32:20;3.40;99.90
40756;DHT22;26461;45.630;9.418;2023-01-29T03:35:27;3.40;99.90
40756;DHT22;26461;45.630;9.418;2023-01-29T03:38:45;3.50;99.90
40756;DHT22;26461;45.630;9.418;2023-01-29T03:45:49;3.50;99.90
40756;DHT22;26461;45.630;9.418;2023-01-29T03:49:16;3.50;99.90
40756;DHT22;26461;45.630;9.418;2023-01-29T03:56:06;3.40;99.90
40756;DHT22;26461;45.630;9.418;2023-01-29T03:59:37;3.40;99.90
40756;DHT22;26461;45.630;9.418;2023-01-29T04:03:14;3.40;99.90
40756;DHT22;26461;45.630;9.418;2023-01-29T04:06:25;3.40;99.90
40756;DHT22;26461;45.630;9.418;2023-01-29T04:09:45;3.40;99.90
40756;DHT22;26461;45.630;9.418;2023-01-29T04:12:55;3.40;99.90
40756;DHT22;26461;45.630;9.418;2023-01-29T04:16:05;3.80;99.90
40756;DHT22;26461;45.630;9.418;2023-01-29T04:19:29;3.40;99.90
40756;DHT22;26461;45.630;9.418;2023-01-29T04:22:37;3.40;99.90
40756;DHT22;26461;45.630;9.418;2023-01-29T04:25:46;3.40;99.90
40756;DHT22;26461;45.630;9.418;2023-01-29T04:32:56;4.10;99.90
40756;DHT22;26461;45.630;9.418;2023-01-29T04:36:27;3.30;99.90
40756;DHT22;26461;45.630;9.418;2023-01-29T04:39:54;3.30;99.90
40756;DHT22;26461;45.630;9.418;2023-01-29T04:43:03;3.30;99.90
40756;DHT22;26461;45.630;9.418;2023-01-29T04:49:33;3.30;99.90
40756;DHT22;26461;45.630;9.418;2023-01-29T04:53:05;3.30;99.90
40756;DHT22;26461;45.630;9.418;2023-01-29T04:56:25;3.30;99.90
40756;DHT22;26461;45.630;9.418;2023-01-29T04:59:42;3.30;99.90
40756;DHT22;26461;45.630;9.418;2023-01-29T05:02:50;3.90;99.90
40756;DHT22;26461;45.630;9.418;2023-01-29T05:05:56;3.30;99.90
40756;DHT22;26461;45.630;9.418;2023-01-29T05:09:02;3.30;99.90
40756;DHT22;26461;45.630;9.418;2023-01-29T05:12:09;3.20;99.90
40756;DHT22;26461;45.630;9.418;2023-01-29T05:15:23;3.30;99.90
40756;DHT22;26461;45.630;9.418;2023-01-29T05:18:30;3.20;99.90
40756;DHT22;26461;45.630;9.418;2023-01-29T05:21:35;3.20;99.90
40756;DHT22;26461;45.630;9.418;2023-01-29T05:24:40;3.20;99.90
40756;DHT22;26461;45.630;9.418;2023-01-29T05:27:48;3.20;99.90
40756;DHT22;26461;45.630;9.418;2023-01-29T05:31:17;3.20;99.90
40756;DHT22;26461;45.630;9.418;2023-01-29T05:34:29;3.20;99.90
40756;DHT22;26461;45.630;9.418;2023-01-29T05:37:34;3.20;99.90
40756;DHT22;26461;45.630;9.418;2023-01-29T05:40:40;3.20;99.90
40756;DHT22;26461;45.630;9.418;2023-01-29T05:43:45;3.70;99.90
40756;DHT22;26461;45.630;9.418;2023-01-29T05:46:50;3.20;99.90
40756;DHT22;26461;45.630;9.418;2023-01-29T05:49:55;3.20;99.90
40756;DHT22;26461;45.630;9.418;2023-01-29T05:53:01;3.20;99.90
40756;DHT22;26461;45.630;9.418;2023-01-29T05:56:12;3.20;99.90
40756;DHT22;26461;45.630;9.418;2023-01-29T05:59:22;3.20;99.90
40756;DHT22;26461;45.630;9.418;2023-01-29T06:02:31;3.80;99.90
40756;DHT22;26461;45.630;9.418;2023-01-29T06:05:37;3.10;99.90
40756;DHT22;26461;45.630;9.418;2023-01-29T06:08:42;3.30;99.90
40756;DHT22;26461;45.630;9.418;2023-01-29T06:11:47;3.10;99.90
40756;DHT22;26461;45.630;9.418;2023-01-29T06:14:53;3.60;99.90
40756;DHT22;26461;45.630;9.418;2023-01-29T06:18:03;3.10;99.90
40756;DHT22;26461;45.630;9.418;2023-01-29T06:21:10;3.10;99.90
40756;DHT22;26461;45.630;9.418;2023-01-29T06:24:17;3.10;99.90
40756;DHT22;26461;45.630;9.418;2023-01-29T06:27:23;3.10;99.90
40756;DHT22;26461;45.630;9.418;2023-01-29T06:30:28;3.10;99.90
40756;DHT22;26461;45.630;9.418;2023-01-29T06:33:33;3.10;99.90
40756;DHT22;26461;45.630;9.418;2023-01-29T06:36:43;3.00;99.90
40756;DHT22;26461;45.630;9.418;2023-01-29T06:39:49;3.10;99.90
40756;DHT22;26461;45.630;9.418;2023-01-29T06:42:59;3.10;99.90
40756;DHT22;26461;45.630;9.418;2023-01-29T06:46:07;3.10;99.90
40756;DHT22;26461;45.630;9.418;2023-01-29T06:49:17;3.00;99.90
40756;DHT22;26461;45.630;9.418;2023-01-29T06:52:22;3.10;99.90
40756;DHT22;26461;45.630;9.418;2023-01-29T06:55:27;3.10;99.90
40756;DHT22;26461;45.630;9.418;2023-01-29T06:58:32;3.20;99.90
40756;DHT22;26461;45.630;9.418;2023-01-29T07:01:42;3.10;99.90
40756;DHT22;26461;45.630;9.418;2023-01-29T07:04:47;3.10;99.90
40756;DHT22;26461;45.630;9.418;2023-01-29T07:07:53;3.10;99.90
40756;DHT22;26461;45.630;9.418;2023-01-29T07:10:59;3.10;99.90
40756;DHT22;26461;45.630;9.418;2023-01-29T07:14:05;3.20;99.90
40756;DHT22;26461;45.630;9.418;2023-01-29T07:17:09;3.20;99.90
40756;DHT22;26461;45.630;9.418;2023-01-29T07:20:15;3.20;99.90
40756;DHT22;26461;45.630;9.418;2023-01-29T07:23:20;3.20;99.90
40756;DHT22;26461;45.630;9.418;2023-01-29T07:26:26;3.70;99.90
40756;DHT22;26461;45.630;9.418;2023-01-29T07:29:31;3.20;99.90
40756;DHT22;26461;45.630;9.418;2023-01-29T07:32:36;3.20;99.90
40756;DHT22;26461;45.630;9.418;2023-01-29T07:35:42;3.60;99.90
40756;DHT22;26461;45.630;9.418;2023-01-29T07:38:52;3.30;99.90
40756;DHT22;26461;45.630;9.418;2023-01-29T07:42:02;3.30;99.90
40756;DHT22;26461;45.630;9.418;2023-01-29T07:45:14;3.30;99.90
40756;DHT22;26461;45.630;9.418;2023-01-29T07:48:19;3.30;99.90
40756;DHT22;26461;45.630;9.418;2023-01-29T07:51:24;3.30;99.90
40756;DHT22;26461;45.630;9.418;2023-01-29T07:54:30;3.30;99.90
40756;DHT22;26461;45.630;9.418;2023-01-29T07:57:37;3.70;99.90
40756;DHT22;26461;45.630;9.418;2023-01-29T08:00:42;3.50;99.90
40756;DHT22;26461;45.630;9.418;2023-01-29T08:03:52;3.50;99.90
40756;DHT22;26461;45.630;9.418;2023-01-29T08:06:59;3.50;99.90
40756;DHT22;26461;45.630;9.418;2023-01-29T08:10:10;3.60;99.90
40756;DHT22;26461;45.630;9.418;2023-01-29T08:13:20;3.80;99.90
40756;DHT22;26461;45.630;9.418;2023-01-29T08:16:30;3.70;99.90
40756;DHT22;26461;45.630;9.418;2023-01-29T08:19:40;3.80;99.90
40756;DHT22;26461;45.630;9.418;2023-01-29T08:22:58;3.90;99.90
40756;DHT22;26461;45.630;9.418;2023-01-29T08:26:08;4.00;99.90
40756;DHT22;26461;45.630;9.418;2023-01-29T08:29:18;4.10;99.90
40756;DHT22;26461;45.630;9.418;2023-01-29T08:32:28;4.10;99.90
40756;DHT22;26461;45.630;9.418;2023-01-29T08:35:37;4.20;99.90
40756;DHT22;26461;45.630;9.418;2023-01-29T08:38:49;4.30;99.90
40756;DHT22;26461;45.630;9.418;2023-01-29T08:41:59;4.30;99.90
40756;DHT22;26461;45.630;9.418;2023-01-29T08:45:09;4.40;99.90
40756;DHT22;26461;45.630;9.418;2023-01-29T08:48:19;4.40;99.90
40756;DHT22;26461;45.630;9.418;2023-01-29T08:51:29;4.50;99.90
40756;DHT22;26461;45.630;9.418;2023-01-29T08:54:39;4.50;99.90
40756;DHT22;26461;45.630;9.418;2023-01-29T08:57:43;4.60;99.90
40756;DHT22;26461;45.630;9.418;2023-01-29T09:00:53;4.60;99.90
40756;DHT22;26461;45.630;9.418;2023-01-29T09:04:03;4.70;99.90
40756;DHT22;26461;45.630;9.418;2023-01-29T09:07:13;4.70;99.80
40756;DHT22;26461;45.630;9.418;2023-01-29T09:10:24;4.70;99.90
40756;DHT22;26461;45.630;9.418;2023-01-29T09:13:34;4.80;99.90
40756;DHT22;26461;45.630;9.418;2023-01-29T09:16:43;4.80;99.90
40756;DHT22;26461;45.630;9.418;2023-01-29T09:19:53;4.80;99.90
40756;DHT22;26461;45.630;9.418;2023-01-29T09:23:05;4.90;99.90
40756;DHT22;26461;45.630;9.418;2023-01-29T09:26:15;4.90;99.90
40756;DHT22;26461;45.630;9.418;2023-01-29T09:29:25;4.90;99.90
40756;DHT22;26461;45.630;9.418;2023-01-29T09:32:35;5.00;99.80
40756;DHT22;26461;45.630;9.418;2023-01-29T09:35:45;5.00;99.80
40756;DHT22;26461;45.630;9.418;2023-01-29T09:38:55;5.00;99.70
40756;DHT22;26461;45.630;9.418;2023-01-29T09:42:20;5.10;99.70
40756;DHT22;26461;45.630;9.418;2023-01-29T09:45:32;5.20;99.80
40756;DHT22;26461;45.630;9.418;2023-01-29T09:48:43;5.20;99.60
40756;DHT22;26461;45.630;9.418;2023-01-29T09:52:02;5.30;99.60
40756;DHT22;26461;45.630;9.418;2023-01-29T09:55:32;5.30;99.80
40756;DHT22;26461;45.630;9.418;2023-01-29T09:58:40;5.40;99.90
40756;DHT22;26461;45.630;9.418;2023-01-29T10:01:58;5.50;99.90
40756;DHT22;26461;45.630;9.418;2023-01-29T10:09:13;5.50;99.70
40756;DHT22;26461;45.630;9.418;2023-01-29T10:16:10;5.60;99.70
40756;DHT22;26461;45.630;9.418;2023-01-29T10:22:55;5.60;99.40
40756;DHT22;26461;45.630;9.418;2023-01-29T10:26:12;5.70;99.00
40756;DHT22;26461;45.630;9.418;2023-01-29T10:29:22;5.60;98.90
40756;DHT22;26461;45.630;9.418;2023-01-29T10:32:35;5.60;99.00
40756;DHT22;26461;45.630;9.418;2023-01-29T10:35:49;5.60;99.00
40756;DHT22;26461;45.630;9.418;2023-01-29T10:39:01;5.60;98.90
40756;DHT22;26461;45.630;9.418;2023-01-29T10:42:34;5.60;99.00
40756;DHT22;26461;45.630;9.418;2023-01-29T10:49:18;5.60;99.20
40756;DHT22;26461;45.630;9.418;2023-01-29T10:59:55;5.70;99.20
40756;DHT22;26461;45.630;9.418;2023-01-29T11:03:17;5.70;98.60
40756;DHT22;26461;45.630;9.418;2023-01-29T11:06:35;5.70;98.50
40756;DHT22;26461;45.630;9.418;2023-01-29T11:09:59;5.80;98.70
40756;DHT22;26461;45.630;9.418;2023-01-29T11:13:14;5.80;98.70
40756;DHT22;26461;45.630;9.418;2023-01-29T11:16:29;5.90;98.10
40756;DHT22;26461;45.630;9.418;2023-01-29T11:19:41;5.90;97.80
40756;DHT22;26461;45.630;9.418;2023-01-29T11:22:55;5.90;97.90
40756;DHT22;26461;45.630;9.418;2023-01-29T11:26:04;6.00;98.10
40756;DHT22;26461;45.630;9.418;2023-01-29T11:32:57;6.10;97.40
40756;DHT22;26461;45.630;9.418;2023-01-29T11:36:20;6.20;97.10
40756;DHT22;26461;45.630;9.418;2023-01-29T11:39:31;6.20;96.80
40756;DHT22;26461;45.630;9.418;2023-01-29T11:42:41;6.30;96.90
40756;DHT22;26461;45.630;9.418;2023-01-29T11:45:53;6.30;96.40
40756;DHT22;26461;45.630;9.418;2023-01-29T11:49:03;6.40;96.40
40756;DHT22;26461;45.630;9.418;2023-01-29T11:52:15;6.40;96.40
40756;DHT22;26461;45.630;9.418;2023-01-29T11:55:29;6.50;96.40
40756;DHT22;26461;45.630;9.418;2023-01-29T11:58:41;6.60;96.30
40756;DHT22;26461;45.630;9.418;2023-01-29T12:01:51;6.60;95.60
40756;DHT22;26461;45.630;9.418;2023-01-29T12:04:59;6.70;95.30
40756;DHT22;26461;45.630;9.418;2023-01-29T12:08:14;6.80;94.70
40756;DHT22;26461;45.630;9.418;2023-01-29T12:11:30;6.80;95.30
40756;DHT22;26461;45.630;9.418;2023-01-29T12:14:40;6.80;94.90
40756;DHT22;26461;45.630;9.418;2023-01-29T12:18:29;6.90;95.10
40756;DHT22;26461;45.630;9.418;2023-01-29T12:21:48;7.00;95.10
40756;DHT22;26461;45.630;9.418;2023-01-29T12:25:18;7.00;95.30
40756;DHT22;26461;45.630;9.418;2023-01-29T12:35:42;7.30;94.30
40756;DHT22;26461;45.630;9.418;2023-01-29T12:38:54;7.40;93.90
40756;DHT22;26461;45.630;9.418;2023-01-29T12:42:17;7.50;94.20
40756;DHT22;26461;45.630;9.418;2023-01-29T12:45:28;7.60;93.50
40756;DHT22;26461;45.630;9.418;2023-01-29T12:48:41;7.60;93.50
40756;DHT22;26461;45.630;9.418;2023-01-29T12:58:36;7.80;93.00
40756;DHT22;26461;45.630;9.418;2023-01-29T13:01:58;7.90;93.20
40756;DHT22;26461;45.630;9.418;2023-01-29T13:08:29;8.00;92.70
40756;DHT22;26461;45.630;9.418;2023-01-29T13:11:53;8.10;92.80
40756;DHT22;26461;45.630;9.418;2023-01-29T13:15:21;8.20;93.70
40756;DHT22;26461;45.630;9.418;2023-01-29T13:18:48;8.40;93.80
40756;DHT22;26461;45.630;9.418;2023-01-29T13:21:58;8.50;93.70
40756;DHT22;26461;45.630;9.418;2023-01-29T13:25:03;8.50;94.90
40756;DHT22;26461;45.630;9.418;2023-01-29T13:28:17;8.60;94.30
40756;DHT22;26461;45.630;9.418;2023-01-29T13:31:38;8.70;92.90
40756;DHT22;26461;45.630;9.418;2023-01-29T13:34:46;8.80;94.10
40756;DHT22;26461;45.630;9.418;2023-01-29T13:37:52;8.80;93.50
40756;DHT22;26461;45.630;9.418;2023-01-29T13:41:06;8.80;93.80
40756;DHT22;26461;45.630;9.418;2023-01-29T13:44:45;9.00;94.00
40756;DHT22;26461;45.630;9.418;2023-01-29T13:47:52;9.10;93.50
40756;DHT22;26461;45.630;9.418;2023-01-29T13:51:10;9.10;93.00
40756;DHT22;26461;45.630;9.418;2023-01-29T13:54:27;9.10;93.50
40756;DHT22;26461;45.630;9.418;2023-01-29T14:00:55;9.60;93.40
40756;DHT22;26461;45.630;9.418;2023-01-29T14:04:21;9.80;93.30
40756;DHT22;26461;45.630;9.418;2023-01-29T14:21:24;10.40;92.70
40756;DHT22;26461;45.630;9.418;2023-01-29T14:24:41;10.50;92.10
40756;DHT22;26461;45.630;9.418;2023-01-29T14:27:52;10.50;91.70
40756;DHT22;26461;45.630;9.418;2023-01-29T14:31:02;10.60;91.80
40756;DHT22;26461;45.630;9.418;2023-01-29T14:34:19;10.60;91.80
40756;DHT22;26461;45.630;9.418;2023-01-29T14:37:34;10.60;90.30
40756;DHT22;26461;45.630;9.418;2023-01-29T14:40:42;10.60;90.40
40756;DHT22;26461;45.630;9.418;2023-01-29T14:50:52;10.60;90.60
40756;DHT22;26461;45.630;9.418;2023-01-29T14:54:25;10.60;90.60
40756;DHT22;26461;45.630;9.418;2023-01-29T14:57:36;10.60;89.00
40756;DHT22;26461;45.630;9.418;2023-01-29T15:00:51;10.50;88.10
40756;DHT22;26461;45.630;9.418;2023-01-29T15:04:16;10.50;87.50
40756;DHT22;26461;45.630;9.418;2023-01-29T15:07:46;10.40;89.60
40756;DHT22;26461;45.630;9.418;2023-01-29T15:11:03;10.50;90.90
40756;DHT22;26461;45.630;9.418;2023-01-29T15:14:38;10.50;91.20
40756;DHT22;26461;45.630;9.418;2023-01-29T15:21:08;10.40;90.50
40756;DHT22;26461;45.630;9.418;2023-01-29T15:24:15;10.30;91.00
40756;DHT22;26461;45.630;9.418;2023-01-29T15:27:20;10.40;91.20
40756;DHT22;26461;45.630;9.418;2023-01-29T15:30:32;9.90;91.30
40756;DHT22;26461;45.630;9.418;2023-01-29T15:33:45;9.80;92.00
40756;DHT22;26461;45.630;9.418;2023-01-29T15:36:56;9.70;91.60
40756;DHT22;26461;45.630;9.418;2023-01-29T15:40:02;9.50;92.40
40756;DHT22;26461;45.630;9.418;2023-01-29T15:46:35;9.30;92.80
40756;DHT22;26461;45.630;9.418;2023-01-29T15:49:41;9.20;92.40
40756;DHT22;26461;45.630;9.418;2023-01-29T15:52:55;9.10;92.60
40756;DHT22;26461;45.630;9.418;2023-01-29T15:56:10;8.90;92.60
40756;DHT22;26461;45.630;9.418;2023-01-29T15:59:25;8.80;92.80
40756;DHT22;26461;45.630;9.418;2023-01-29T16:02:42;8.60;93.40
40756;DHT22;26461;45.630;9.418;2023-01-29T16:05:53;8.50;93.90
40756;DHT22;26461;45.630;9.418;2023-01-29T16:09:04;8.30;94.40
40756;DHT22;26461;45.630;9.418;2023-01-29T16:12:14;8.20;94.90
40756;DHT22;26461;45.630;9.418;2023-01-29T16:18:42;8.00;94.90
40756;DHT22;26461;45.630;9.418;2023-01-29T16:22:04;7.80;94.90
40756;DHT22;26461;45.630;9.418;2023-01-29T16:25:15;7.60;95.20
40756;DHT22;26461;45.630;9.418;2023-01-29T16:28:25;7.50;94.80
40756;DHT22;26461;45.630;9.418;2023-01-29T16:31:35;7.30;94.90
40756;DHT22;26461;45.630;9.418;2023-01-29T16:34:47;7.20;94.30
40756;DHT22;26461;45.630;9.418;2023-01-29T16:38:02;7.10;94.10
40756;DHT22;26461;45.630;9.418;2023-01-29T16:44:35;7.00;93.60
40756;DHT22;26461;45.630;9.418;2023-01-29T16:48:19;7.00;93.50
40756;DHT22;26461;45.630;9.418;2023-01-29T16:51:29;7.00;93.50
40756;DHT22;26461;45.630;9.418;2023-01-29T16:54:41;6.90;93.40
40756;DHT22;26461;45.630;9.418;2023-01-29T16:57:53;6.90;93.40
40756;DHT22;26461;45.630;9.418;2023-01-29T17:01:07;6.80;93.40
40756;DHT22;26461;45.630;9.418;2023-01-29T17:04:18;6.80;93.50
40756;DHT22;26461;45.630;9.418;2023-01-29T17:07:30;6.80;93.60
40756;DHT22;26461;45.630;9.418;2023-01-29T17:10:35;6.80;93.90
40756;DHT22;26461;45.630;9.418;2023-01-29T17:13:45;6.90;94.10
40756;DHT22;26461;45.630;9.418;2023-01-29T17:17:11;6.80;94.00
40756;DHT22;26461;45.630;9.418;2023-01-29T17:20:17;6.90;94.00
40756;DHT22;26461;45.630;9.418;2023-01-29T17:23:23;6.80;94.20
40756;DHT22;26461;45.630;9.418;2023-01-29T17:26:29;6.70;94.30
40756;DHT22;26461;45.630;9.418;2023-01-29T17:29:35;6.70;94.60
40756;DHT22;26461;45.630;9.418;2023-01-29T17:32:42;6.70;94.90
40756;DHT22;26461;45.630;9.418;2023-01-29T17:35:53;6.60;95.00
40756;DHT22;26461;45.630;9.418;2023-01-29T17:39:15;6.60;95.20
40756;DHT22;26461;45.630;9.418;2023-01-29T17:42:22;6.60;95.30
40756;DHT22;26461;45.630;9.418;2023-01-29T17:45:27;6.60;95.40
40756;DHT22;26461;45.630;9.418;2023-01-29T17:48:37;6.50;95.60
40756;DHT22;26461;45.630;9.418;2023-01-29T17:51:42;6.50;95.70
40756;DHT22;26461;45.630;9.418;2023-01-29T17:54:52;6.50;95.70
40756;DHT22;26461;45.630;9.418;2023-01-29T17:58:02;6.50;96.00
40756;DHT22;26461;45.630;9.418;2023-01-29T18:01:07;6.20;96.30
40756;DHT22;26461;45.630;9.418;2023-01-29T18:04:13;6.10;96.50
40756;DHT22;26461;45.630;9.418;2023-01-29T18:07:22;6.00;96.60
40756;DHT22;26461;45.630;9.418;2023-01-29T18:10:27;5.80;96.80
40756;DHT22;26461;45.630;9.418;2023-01-29T18:13:37;5.70;97.00
40756;DHT22;26461;45.630;9.418;2023-01-29T18:16:50;5.70;96.90
40756;DHT22;26461;45.630;9.418;2023-01-29T18:20:00;5.60;96.90
40756;DHT22;26461;45.630;9.418;2023-01-29T18:23:10;5.70;97.10
40756;DHT22;26461;45.630;9.418;2023-01-29T18:26:21;5.70;97.10
40756;DHT22;26461;45.630;9.418;2023-01-29T18:29:31;5.70;97.10
40756;DHT22;26461;45.630;9.418;2023-01-29T18:32:41;5.70;97.10
40756;DHT22;26461;45.630;9.418;2023-01-29T18:35:51;5.80;97.30
40756;DHT22;26461;45.630;9.418;2023-01-29T18:39:03;5.70;97.40
40756;DHT22;26461;45.630;9.418;2023-01-29T18:42:13;5.70;97.50
40756;DHT22;26461;45.630;9.418;2023-01-29T18:45:23;5.70;97.60
40756;DHT22;26461;45.630;9.418;2023-01-29T18:48:33;5.70;97.70
40756;DHT22;26461;45.630;9.418;2023-01-29T18:51:44;5.70;98.10
40756;DHT22;26461;45.630;9.418;2023-01-29T18:54:54;5.70;97.90
40756;DHT22;26461;45.630;9.418;2023-01-29T18:58:05;5.70;97.90
40756;DHT22;26461;45.630;9.418;2023-01-29T19:01:17;5.70;98.00
40756;DHT22;26461;45.630;9.418;2023-01-29T19:04:28;5.60;97.90
40756;DHT22;26461;45.630;9.418;2023-01-29T19:07:37;5.60;98.00
40756;DHT22;26461;45.630;9.418;2023-01-29T19:10:47;5.60;98.00
40756;DHT22;26461;45.630;9.418;2023-01-29T19:13:57;5.60;98.20
40756;DHT22;26461;45.630;9.418;2023-01-29T19:17:07;5.50;98.30
40756;DHT22;26461;45.630;9.418;2023-01-29T19:20:17;5.50;98.20
40756;DHT22;26461;45.630;9.418;2023-01-29T19:23:27;5.50;98.20
40756;DHT22;26461;45.630;9.418;2023-01-29T19:26:38;5.50;98.30
40756;DHT22;26461;45.630;9.418;2023-01-29T19:29:48;5.50;98.30
40756;DHT22;26461;45.630;9.418;2023-01-29T19:32:59;5.50;98.20
40756;DHT22;26461;45.630;9.418;2023-01-29T19:36:09;5.40;98.30
40756;DHT22;26461;45.630;9.418;2023-01-29T19:39:20;5.40;98.30
40756;DHT22;26461;45.630;9.418;2023-01-29T19:42:30;5.40;98.40
40756;DHT22;26461;45.630;9.418;2023-01-29T19:45:40;5.30;98.40
40756;DHT22;26461;45.630;9.418;2023-01-29T19:48:50;5.30;98.50
40756;DHT22;26461;45.630;9.418;2023-01-29T19:52:04;5.30;98.60
40756;DHT22;26461;45.630;9.418;2023-01-29T19:55:15;5.30;98.60
40756;DHT22;26461;45.630;9.418;2023-01-29T19:58:20;5.20;98.60
40756;DHT22;26461;45.630;9.418;2023-01-29T20:01:30;5.20;98.90
40756;DHT22;26461;45.630;9.418;2023-01-29T20:04:40;5.20;99.00
40756;DHT22;26461;45.630;9.418;2023-01-29T20:07:50;5.10;99.10
40756;DHT22;26461;45.630;9.418;2023-01-29T20:11:01;5.50;99.30
40756;DHT22;26461;45.630;9.418;2023-01-29T20:14:10;5.10;99.30
40756;DHT22;26461;45.630;9.418;2023-01-29T20:17:15;5.00;99.40
40756;DHT22;26461;45.630;9.418;2023-01-29T20:20:25;5.00;99.50
40756;DHT22;26461;45.630;9.418;2023-01-29T20:23:38;5.00;99.60
40756;DHT22;26461;45.630;9.418;2023-01-29T20:26:51;5.00;99.80
40756;DHT22;26461;45.630;9.418;2023-01-29T20:30:02;5.00;99.80
40756;DHT22;26461;45.630;9.418;2023-01-29T20:33:12;4.90;99.70
40756;DHT22;26461;45.630;9.418;2023-01-29T20:36:17;4.90;99.70
40756;DHT22;26461;45.630;9.418;2023-01-29T20:39:27;4.90;99.80
40756;DHT22;26461;45.630;9.418;2023-01-29T20:42:36;4.90;99.90
40756;DHT22;26461;45.630;9.418;2023-01-29T20:45:46;4.90;99.90
40756;DHT22;26461;45.630;9.418;2023-01-29T20:48:57;4.90;99.90
40756;DHT22;26461;45.630;9.418;2023-01-29T20:52:06;5.80;99.90
40756;DHT22;26461;45.630;9.418;2023-01-29T20:55:17;4.70;99.90
40756;DHT22;26461;45.630;9.418;2023-01-29T20:58:27;4.70;99.90
40756;DHT22;26461;45.630;9.418;2023-01-29T21:01:32;4.70;99.90
40756;DHT22;26461;45.630;9.418;2023-01-29T21:04:41;4.70;99.90
40756;DHT22;26461;45.630;9.418;2023-01-29T21:07:51;4.70;99.90
40756;DHT22;26461;45.630;9.418;2023-01-29T21:11:03;4.70;99.90
40756;DHT22;26461;45.630;9.418;2023-01-29T21:14:13;4.70;99.90
40756;DHT22;26461;45.630;9.418;2023-01-29T21:17:23;4.60;99.90
40756;DHT22;26461;45.630;9.418;2023-01-29T21:20:33;4.60;99.90
40756;DHT22;26461;45.630;9.418;2023-01-29T21:23:38;4.60;99.90
40756;DHT22;26461;45.630;9.418;2023-01-29T21:26:49;4.50;99.90
40756;DHT22;26461;45.630;9.418;2023-01-29T21:29:58;4.50;99.90
40756;DHT22;26461;45.630;9.418;2023-01-29T21:33:08;4.90;99.90
40756;DHT22;26461;45.630;9.418;2023-01-29T21:36:18;4.50;99.90
40756;DHT22;26461;45.630;9.418;2023-01-29T21:39:28;4.40;99.90
40756;DHT22;26461;45.630;9.418;2023-01-29T21:42:38;4.40;99.90
40756;DHT22;26461;45.630;9.418;2023-01-29T21:46:07;4.40;99.90
40756;DHT22;26461;45.630;9.418;2023-01-29T21:49:19;4.40;99.90
40756;DHT22;26461;45.630;9.418;2023-01-29T21:52:29;4.30;99.90
40756;DHT22;26461;45.630;9.418;2023-01-29T21:55:39;4.30;99.90
40756;DHT22;26461;45.630;9.418;2023-01-29T21:58:49;4.30;99.90
40756;DHT22;26461;45.630;9.418;2023-01-29T22:01:59;4.20;99.90
40756;DHT22;26461;45.630;9.418;2023-01-29T22:05:09;4.20;99.90
40756;DHT22;26461;45.630;9.418;2023-01-29T22:08:19;4.20;99.90
40756;DHT22;26461;45.630;9.418;2023-01-29T22:11:29;4.20;99.90
40756;DHT22;26461;45.630;9.418;2023-01-29T22:14:34;4.20;99.90
40756;DHT22;26461;45.630;9.418;2023-01-29T22:17:44;4.20;99.90